Time;durP1;ratioP1;P1;durP2;ratioP2;P2;SDS_P1;SDS_P2;PMS_P1;PMS_P2;Temp;Humidity;BMP_temperature;BMP_pressure;BME280_temperature;BME280_humidity;BME280_pressure;Samples;Min_cycle;Max_cycle;Signal;HPM_P1;HPM_P2
2023/09/13 00:01:12;;;;;;;19.05;10.65;;;;;;;-146.27;90.55;80984.28;5034005;28;20017;-68
2023/09/13 00:03:37;;;;;;;20.67;10.88;;;;;;;-146.27;90.44;80966.22;5040161;28;20102;-68
2023/09/13 00:06:03;;;;;;;16.45;11.18;;;;;;;-146.27;90.66;80948.16;5038504;28;20055;-68
2023/09/13 00:08:28;;;;;;;18.58;9.45;;;;;;;-146.27;90.79;80950.16;5031372;28;20049;-68
2023/09/13 00:11:01;;;;;;;20.00;10.90;;;;;;;-146.27;90.54;80980.28;5039995;28;20029;-68
2023/09/13 00:13:26;;;;;;;20.92;10.75;;;;;;;-146.27;90.72;80960.19;5050136;28;20392;-68
2023/09/13 00:15:52;;;;;;;18.73;10.60;;;;;;;-146.27;90.50;80926.06;5032509;28;20044;-66
2023/09/13 00:18:17;;;;;;;18.58;10.00;;;;;;;-146.27;90.51;80960.19;5035800;28;20132;-66
2023/09/13 00:20:44;;;;;;;16.42;10.77;;;;;;;-146.27;90.47;80974.25;5035301;28;20526;-67
2023/09/13 00:23:09;;;;;;;18.45;10.95;;;;;;;-146.27;91.21;80954.19;5031789;28;20025;-66
2023/09/13 00:25:35;;;;;;;17.65;10.70;;;;;;;-146.27;90.85;80946.13;5037476;28;20028;-67
2023/09/13 00:28:00;;;;;;;25.95;10.50;;;;;;;-146.27;90.34;80962.22;5046610;28;20029;-67
2023/09/13 00:30:26;;;;;;;22.63;10.43;;;;;;;-146.27;90.36;80958.19;5038545;28;20084;-67
2023/09/13 00:32:51;;;;;;;17.98;10.18;;;;;;;-146.27;90.23;80928.06;5035378;28;20028;-66
2023/09/13 00:35:16;;;;;;;21.02;10.02;;;;;;;-146.27;90.51;80974.25;5034618;28;20083;-67
2023/09/13 00:37:42;;;;;;;17.05;10.80;;;;;;;-146.27;90.72;80966.22;5030856;28;20029;-68
2023/09/13 00:40:08;;;;;;;14.30;9.25;;;;;;;-146.27;90.30;80942.13;5039032;28;20052;-67
2023/09/13 00:42:33;;;;;;;15.32;10.00;;;;;;;-146.27;90.16;80994.34;5032636;28;20021;-67
2023/09/13 00:44:59;;;;;;;20.55;10.82;;;;;;;-146.27;89.83;80984.28;5035847;28;20746;-67
2023/09/13 00:47:24;;;;;;;17.80;10.10;;;;;;;-146.27;89.99;80964.22;5042258;28;20067;-66
2023/09/13 00:49:50;;;;;;;16.58;10.43;;;;;;;-146.27;89.56;81000.34;5037994;28;20037;-66
2023/09/13 00:52:16;;;;;;;19.63;11.07;;;;;;;-146.27;89.97;81012.41;5036864;28;20151;-67
2023/09/13 00:54:42;;;;;;;17.60;10.52;;;;;;;-146.27;90.26;81006.38;5040696;28;20035;-66
2023/09/13 00:57:08;;;;;;;24.70;11.10;;;;;;;-146.27;90.59;80962.22;5042045;28;20036;-68
2023/09/13 00:59:34;;;;;;;19.33;11.82;;;;;;;-146.27;90.79;81012.41;5038646;28;20082;-66
2023/09/13 01:01:59;;;;;;;23.45;11.15;;;;;;;-146.27;90.99;80964.22;5036082;28;20049;-65
2023/09/13 01:04:25;;;;;;;21.80;12.60;;;;;;;-146.27;90.44;80974.25;5042790;28;20029;-66
2023/09/13 01:06:51;;;;;;;21.77;11.05;;;;;;;-146.27;89.88;80966.22;5035730;28;20020;-67
2023/09/13 01:09:17;;;;;;;22.48;12.27;;;;;;;-146.27;89.87;80982.28;5041575;28;20495;-66
2023/09/13 01:11:44;;;;;;;22.27;12.60;;;;;;;-146.27;90.00;80964.22;5032001;28;20048;-65
2023/09/13 01:14:10;;;;;;;21.40;12.05;;;;;;;-146.27;90.05;80994.34;5037416;28;20029;-67
2023/09/13 01:16:38;;;;;;;27.58;12.75;;;;;;;-146.27;89.83;80992.31;5044938;28;20036;-66
2023/09/13 01:19:43;;;;;;;25.77;11.77;;;;;;;-146.27;90.40;80980.28;5036310;28;20029;-66
2023/09/13 01:22:20;;;;;;;17.52;11.07;;;;;;;-146.27;89.76;80990.31;5036796;28;20045;-66
2023/09/13 01:25:11;;;;;;;23.25;12.73;;;;;;;-146.27;90.26;80982.28;5038325;28;20052;-66
2023/09/13 01:28:27;;;;;;;21.08;12.18;;;;;;;-146.27;90.51;80954.19;5041700;28;20473;-67
2023/09/13 01:30:53;;;;;;;22.27;11.82;;;;;;;-146.27;89.88;80972.25;5042927;28;20033;-68
2023/09/13 01:33:19;;;;;;;16.48;12.20;;;;;;;-146.27;90.53;81000.34;5032841;28;20032;-67
2023/09/13 01:35:44;;;;;;;18.05;11.15;;;;;;;-146.27;90.38;81030.47;5036205;28;20405;-68
2023/09/13 01:38:09;;;;;;;18.25;11.25;;;;;;;-146.27;90.34;81004.38;5034902;28;20115;-68
2023/09/13 01:40:39;;;;;;;22.85;12.63;;;;;;;-146.27;90.15;81038.50;5036879;28;20154;-68
2023/09/13 01:43:06;;;;;;;17.45;11.18;;;;;;;-146.27;89.67;81054.56;5040161;28;20028;-68
2023/09/13 01:45:35;;;;;;;20.08;11.25;;;;;;;-146.27;90.15;81060.59;5044586;28;20028;-68
2023/09/13 01:48:03;;;;;;;18.50;11.30;;;;;;;-146.27;89.95;81084.69;5038346;28;20646;-68
2023/09/13 01:50:30;;;;;;;20.70;11.55;;;;;;;-146.27;90.09;81096.75;5039852;28;20017;-67
2023/09/13 01:52:55;;;;;;;24.98;12.80;;;;;;;-146.27;89.35;81102.78;5036618;28;20036;-69
2023/09/13 01:55:21;;;;;;;25.40;12.70;;;;;;;-146.27;90.15;81140.94;5033041;28;20026;-69
2023/09/13 01:57:46;;;;;;;24.17;11.90;;;;;;;-146.27;89.76;81144.94;5044990;28;20120;-67
2023/09/13 02:00:12;;;;;;;21.30;11.93;;;;;;;-146.27;89.46;81171.06;5036507;28;20382;-67
2023/09/13 02:02:38;;;;;;;25.08;12.57;;;;;;;-146.27;89.78;81159.00;5036408;28;20085;-69
2023/09/13 02:05:03;;;;;;;20.27;11.77;;;;;;;-146.27;90.14;81169.03;5044419;28;20025;-69
2023/09/13 02:07:29;;;;;;;22.90;11.18;;;;;;;-146.27;89.61;81181.09;5036868;28;20142;-69
2023/09/13 02:09:54;;;;;;;20.58;11.90;;;;;;;-146.27;89.83;81177.06;5039020;28;20029;-68
2023/09/13 02:12:19;;;;;;;19.30;11.80;;;;;;;-146.27;89.86;81217.25;5038295;28;20031;-68
2023/09/13 02:14:45;;;;;;;20.58;12.18;;;;;;;-146.27;90.08;81211.22;5035735;28;20041;-69
2023/09/13 02:17:10;;;;;;;20.00;12.18;;;;;;;-146.27;90.12;81223.25;5039763;28;20033;-69
2023/09/13 02:19:37;;;;;;;19.20;11.93;;;;;;;-146.27;89.67;81181.09;5036634;28;20104;-69
2023/09/13 02:22:03;;;;;;;19.77;11.70;;;;;;;-146.27;89.59;81205.19;5038752;28;20021;-67
2023/09/13 02:24:28;;;;;;;18.35;10.93;;;;;;;-146.27;89.45;81245.34;5039200;28;20064;-67
2023/09/13 02:26:57;;;;;;;20.13;11.27;;;;;;;-146.27;89.44;81271.47;5038198;28;20067;-68
2023/09/13 02:29:23;;;;;;;27.27;12.43;;;;;;;-146.27;89.68;81271.47;5037909;28;20082;-69
2023/09/13 02:31:49;;;;;;;24.20;12.10;;;;;;;-146.27;90.13;81271.47;5039215;28;20028;-69
2023/09/13 02:34:14;;;;;;;25.63;11.90;;;;;;;-146.27;90.58;81259.41;5034720;28;20036;-69
2023/09/13 02:36:40;;;;;;;24.60;11.52;;;;;;;-146.27;90.34;81257.41;5032614;28;20028;-68
2023/09/13 02:39:06;;;;;;;26.13;12.20;;;;;;;-146.27;90.56;81223.25;5039043;28;20029;-69
2023/09/13 02:41:31;;;;;;;27.83;13.52;;;;;;;-146.27;90.67;81201.19;5036404;28;20029;-69
2023/09/13 02:43:57;;;;;;;25.05;13.60;;;;;;;-146.27;90.54;81173.06;5037361;28;20024;-69
2023/09/13 02:46:22;;;;;;;23.35;12.05;;;;;;;-146.27;90.71;81193.16;5037052;28;20107;-68
2023/09/13 02:48:47;;;;;;;22.98;13.30;;;;;;;-146.27;90.75;81167.03;5035411;28;20057;-66
2023/09/13 02:51:14;;;;;;;31.45;15.13;;;;;;;-146.27;90.85;81187.13;5038188;28;20026;-69
2023/09/13 02:53:40;;;;;;;28.02;15.73;;;;;;;-146.27;90.55;81183.09;5034613;28;20032;-68
2023/09/13 02:56:09;;;;;;;27.85;15.50;;;;;;;-146.27;90.07;81142.94;5040915;28;20043;-68
2023/09/13 02:58:34;;;;;;;27.10;15.48;;;;;;;-146.27;90.69;81187.13;5034901;28;20487;-68
2023/09/13 03:01:03;;;;;;;28.75;15.23;;;;;;;-146.27;90.08;81175.06;5035936;28;20013;-68
2023/09/13 03:03:32;;;;;;;31.52;16.98;;;;;;;-146.27;90.04;81142.94;5032139;28;20029;-69
2023/09/13 03:06:15;;;;;;;29.33;16.38;;;;;;;-146.27;89.91;81128.88;5046565;28;20652;-68
2023/09/13 03:08:41;;;;;;;25.77;17.38;;;;;;;-146.27;90.09;81148.97;5035883;28;20037;-68
2023/09/13 03:11:14;;;;;;;29.05;16.08;;;;;;;-146.27;90.17;81163.03;5038211;28;20058;-68
2023/09/13 03:13:39;;;;;;;32.13;18.30;;;;;;;-146.27;90.11;81155.00;5033199;28;20025;-68
2023/09/13 03:16:14;;;;;;;32.67;18.30;;;;;;;-146.27;90.12;81167.03;5034012;28;20049;-68
2023/09/13 03:18:40;;;;;;;34.88;17.80;;;;;;;-146.27;90.32;81130.88;5034701;28;20059;-68
2023/09/13 03:21:09;;;;;;;38.00;18.90;;;;;;;-146.27;90.47;81150.97;5037874;28;20032;-68
2023/09/13 03:23:40;;;;;;;36.95;19.52;;;;;;;-146.27;90.39;81132.91;5032810;28;21039;-68
2023/09/13 03:26:20;;;;;;;39.08;19.67;;;;;;;-146.27;90.28;81169.03;5034073;28;20037;-68
2023/09/13 03:28:47;;;;;;;39.50;20.10;;;;;;;-146.27;89.54;81124.88;5036394;28;20036;-68
2023/09/13 03:31:15;;;;;;;40.55;20.08;;;;;;;-146.27;90.05;81167.03;5049912;28;20389;-68
2023/09/13 03:33:41;;;;;;;38.25;20.10;;;;;;;-146.27;89.84;81142.94;5036052;28;20039;-68
2023/09/13 03:36:08;;;;;;;37.80;20.63;;;;;;;-146.27;90.11;81165.03;5040679;28;20090;-68
2023/09/13 03:38:35;;;;;;;36.05;18.08;;;;;;;-146.27;89.79;81146.97;5031878;28;20026;-68
2023/09/13 03:41:03;;;;;;;43.58;21.40;;;;;;;-146.27;90.07;81155.00;5037871;28;20116;-68
2023/09/13 03:43:28;;;;;;;46.33;24.60;;;;;;;-146.27;90.02;81167.03;5040465;28;20460;-68
2023/09/13 03:45:53;;;;;;;43.72;23.30;;;;;;;-146.27;90.25;81165.03;5038753;28;20040;-68
2023/09/13 03:48:19;;;;;;;50.53;24.52;;;;;;;-146.27;90.03;81142.94;5038489;28;20035;-69
2023/09/13 03:50:44;;;;;;;42.25;23.83;;;;;;;-146.27;89.62;81130.88;5037274;28;20025;-69
2023/09/13 03:53:09;;;;;;;48.05;24.48;;;;;;;-146.27;89.58;81175.06;5038499;28;20692;-68
2023/09/13 03:55:35;;;;;;;48.05;24.42;;;;;;;-146.27;89.56;81191.13;5040650;28;20059;-69
2023/09/13 03:58:00;;;;;;;43.30;24.60;;;;;;;-146.27;89.34;81134.91;5041633;28;20024;-68
2023/09/13 04:00:25;;;;;;;41.10;23.38;;;;;;;-146.27;89.81;81211.22;5035670;28;20035;-68
2023/09/13 04:02:51;;;;;;;48.40;25.13;;;;;;;-146.27;89.56;81159.00;5032607;28;20415;-68
2023/09/13 04:05:16;;;;;;;44.55;24.30;;;;;;;-146.27;89.07;81179.09;5034667;28;20159;-68
2023/09/13 04:07:41;;;;;;;45.92;25.48;;;;;;;-146.27;89.26;81175.06;5050036;28;20029;-68
2023/09/13 04:10:07;;;;;;;40.47;22.75;;;;;;;-146.27;88.99;81207.19;5050498;28;20444;-69
2023/09/13 04:12:32;;;;;;;45.85;24.45;;;;;;;-146.27;88.69;81132.91;5035818;28;20029;-68
2023/09/13 04:14:58;;;;;;;39.83;22.55;;;;;;;-146.27;88.70;81175.06;5042618;28;20056;-68
2023/09/13 04:17:23;;;;;;;41.20;22.48;;;;;;;-146.27;88.76;81191.13;5040187;28;20029;-68
2023/09/13 04:19:49;;;;;;;37.72;20.73;;;;;;;-146.27;88.68;81159.00;5034737;28;20032;-68
2023/09/13 04:22:16;;;;;;;37.85;20.13;;;;;;;-146.27;88.39;81148.97;5044147;28;20025;-68
2023/09/13 04:24:42;;;;;;;40.50;20.55;;;;;;;-146.27;88.51;81148.97;5057857;28;20062;-68
2023/09/13 04:27:08;;;;;;;41.55;21.15;;;;;;;-146.27;88.45;81159.00;5034669;28;20452;-68
2023/09/13 04:29:33;;;;;;;38.05;20.40;;;;;;;-146.27;88.74;81130.88;5040139;28;20035;-68
2023/09/13 04:31:59;;;;;;;33.20;18.73;;;;;;;-146.27;88.37;81171.06;5041194;28;20025;-68
2023/09/13 04:34:25;;;;;;;37.47;18.73;;;;;;;-146.27;88.50;81177.06;5041311;28;20111;-68
2023/09/13 04:36:51;;;;;;;35.45;19.73;;;;;;;-146.27;88.80;81203.19;5049329;28;20659;-68
2023/09/13 04:39:16;;;;;;;22.10;11.48;;;;;;;-146.27;88.52;81183.09;5048205;28;20021;-68
2023/09/13 04:41:42;;;;;;;19.88;8.43;;;;;;;-146.27;87.71;81187.13;5045319;28;20040;-69
2023/09/13 04:44:07;;;;;;;20.60;3.88;;;;;;;-146.27;87.10;81169.03;5042795;28;20551;-68
2023/09/13 04:46:32;;;;;;;22.58;3.15;;;;;;;-146.27;86.93;81201.19;5048852;28;20024;-68
2023/09/13 04:48:58;;;;;;;16.48;2.60;;;;;;;-146.27;86.71;81271.47;5047888;28;20025;-69
2023/09/13 04:51:23;;;;;;;25.33;2.88;;;;;;;-146.27;86.26;81229.28;5047869;28;21718;-69
2023/09/13 04:53:48;;;;;;;31.15;3.35;;;;;;;-146.27;86.12;81329.72;5038880;28;20025;-66
2023/09/13 04:56:14;;;;;;;24.17;2.53;;;;;;;-146.27;85.56;81289.53;5036603;28;20696;-66
2023/09/13 04:58:39;;;;;;;15.80;2.53;;;;;;;-146.27;84.99;81325.69;5043113;28;20036;-66
2023/09/13 05:01:05;;;;;;;20.95;2.83;;;;;;;-146.27;85.67;81468.28;5038016;28;20028;-66
2023/09/13 05:03:30;;;;;;;14.90;2.38;;;;;;;-146.27;85.69;81482.34;5036972;28;20053;-67
2023/09/13 05:05:56;;;;;;;18.63;2.40;;;;;;;-146.27;85.81;81478.31;5040793;28;20037;-67
2023/09/13 05:08:21;;;;;;;14.13;2.05;;;;;;;-146.27;85.26;81492.38;5037963;28;20025;-66
2023/09/13 05:10:46;;;;;;;13.68;1.92;;;;;;;-146.27;85.75;81504.44;5040972;28;20071;-66
2023/09/13 05:13:13;;;;;;;16.75;1.88;;;;;;;-146.27;85.80;81534.56;5040403;28;20025;-66
2023/09/13 05:15:43;;;;;;;11.70;1.45;;;;;;;-146.27;85.42;81532.53;5043493;28;20097;-66
2023/09/13 05:18:08;;;;;;;9.55;1.70;;;;;;;-146.27;85.51;81536.56;5043430;28;20135;-66
2023/09/13 05:20:33;;;;;;;9.82;1.27;;;;;;;-146.27;85.13;81514.47;5049322;28;20120;-67
2023/09/13 05:22:59;;;;;;;6.25;1.23;;;;;;;-146.27;84.99;81630.97;5045502;28;20468;-66
2023/09/13 05:25:24;;;;;;;3.22;0.95;;;;;;;-146.27;84.01;81661.09;5046999;28;20541;-66
2023/09/13 05:27:49;;;;;;;3.72;0.60;;;;;;;-146.27;83.99;81737.41;5041005;28;20051;-67
2023/09/13 05:30:15;;;;;;;2.28;0.77;;;;;;;-146.27;83.57;81773.56;5043865;28;20096;-66
2023/09/13 05:32:40;;;;;;;6.57;1.20;;;;;;;-146.27;83.75;81721.34;5045663;28;20063;-66
2023/09/13 05:35:06;;;;;;;3.40;0.82;;;;;;;-146.27;83.81;81731.38;5046383;28;20540;-66
2023/09/13 05:37:31;;;;;;;7.00;1.00;;;;;;;-146.27;83.57;81759.50;5049800;28;20976;-66
2023/09/13 05:39:58;;;;;;;2.45;1.00;;;;;;;-146.27;83.70;81765.53;5051288;28;20029;-65
2023/09/13 05:42:23;;;;;;;8.13;1.27;;;;;;;-146.27;83.61;81857.91;5046184;28;20535;-66
2023/09/13 05:44:49;;;;;;;7.28;1.15;;;;;;;-146.27;83.66;81837.81;5043627;28;20059;-65
2023/09/13 05:47:14;;;;;;;7.60;1.08;;;;;;;-146.27;83.68;81837.81;5042935;28;20460;-66
2023/09/13 05:49:39;;;;;;;2.88;1.02;;;;;;;-146.27;82.93;81739.41;5044838;28;20021;-66
2023/09/13 05:52:05;;;;;;;3.22;0.70;;;;;;;-146.27;83.26;81837.81;5044482;28;20112;-65
2023/09/13 05:54:30;;;;;;;10.65;1.00;;;;;;;-146.27;82.87;81821.75;5048265;28;20025;-67
2023/09/13 05:56:56;;;;;;;5.00;0.80;;;;;;;-146.27;83.02;81817.75;5050236;28;20083;-67
2023/09/13 05:59:23;;;;;;;6.43;1.38;;;;;;;-146.27;82.84;81833.81;5053903;28;20017;-66
2023/09/13 06:01:48;;;;;;;4.57;1.50;;;;;;;-146.27;82.70;81837.81;5049884;28;20047;-66
2023/09/13 06:04:14;;;;;;;4.85;1.05;;;;;;;-146.27;82.56;81878.00;5037804;28;20465;-66
2023/09/13 06:06:39;;;;;;;3.75;1.10;;;;;;;-146.27;82.45;81890.06;5041065;28;20520;-66
2023/09/13 06:09:05;;;;;;;5.10;0.90;;;;;;;-146.27;81.52;81900.09;5039409;28;20037;-68
2023/09/13 06:11:31;;;;;;;5.65;1.10;;;;;;;-146.27;81.95;81878.00;5052352;28;20017;-68
2023/09/13 06:13:56;;;;;;;7.95;1.17;;;;;;;-146.27;81.32;81904.13;5041148;28;20026;-68
2023/09/13 06:16:23;;;;;;;7.07;2.35;;;;;;;-146.27;81.98;81878.00;5040306;28;20048;-69
2023/09/13 06:18:49;;;;;;;9.52;1.25;;;;;;;-146.27;82.22;81936.25;5035638;28;20029;-68
2023/09/13 06:21:14;;;;;;;6.20;0.90;;;;;;;-146.27;81.89;81928.22;5047988;28;20729;-68
2023/09/13 06:23:40;;;;;;;7.32;1.00;;;;;;;-146.27;81.66;81902.09;5051476;28;20388;-68
2023/09/13 06:26:07;;;;;;;3.35;1.05;;;;;;;-146.27;81.35;81886.03;5043568;28;20025;-68
2023/09/13 06:28:32;;;;;;;4.75;1.00;;;;;;;-146.27;80.99;81918.16;5049802;28;20036;-68
2023/09/13 06:30:58;;;;;;;3.75;1.20;;;;;;;-146.27;80.89;81922.19;5040562;28;20033;-68
2023/09/13 06:33:24;;;;;;;4.97;1.45;;;;;;;-146.27;81.28;81916.16;5040195;28;20022;-69
2023/09/13 06:35:50;;;;;;;9.85;1.17;;;;;;;-146.27;81.09;81938.25;5038802;28;20512;-68
2023/09/13 06:38:16;;;;;;;3.72;1.40;;;;;;;-146.27;81.72;81914.16;5035689;28;20024;-68
2023/09/13 06:40:43;;;;;;;7.00;0.93;;;;;;;-146.27;81.39;81938.25;5043262;28;20028;-67
2023/09/13 06:43:10;;;;;;;5.88;1.20;;;;;;;-146.27;80.73;81904.13;5051252;28;20044;-68
2023/09/13 06:45:35;;;;;;;5.53;1.15;;;;;;;-146.27;80.43;81878.00;5035966;28;20033;-68
2023/09/13 06:48:01;;;;;;;5.70;1.15;;;;;;;-146.27;80.59;81894.06;5033246;28;20029;-69
2023/09/13 06:50:26;;;;;;;3.88;1.20;;;;;;;-146.27;80.78;81894.06;5037033;28;20041;-68
2023/09/13 06:52:51;;;;;;;4.65;1.10;;;;;;;-146.27;80.17;81869.97;5037658;28;20035;-68
2023/09/13 06:55:17;;;;;;;4.80;1.40;;;;;;;-146.27;80.41;81878.00;5051747;28;20060;-68
2023/09/13 06:57:43;;;;;;;6.40;0.77;;;;;;;-146.27;80.08;81853.91;5042472;28;20108;-68
2023/09/13 07:00:09;;;;;;;3.97;1.20;;;;;;;-146.27;79.67;81825.78;5046679;28;20167;-68
2023/09/13 07:02:34;;;;;;;5.40;1.50;;;;;;;-146.27;79.89;81745.44;5051309;28;20108;-68
2023/09/13 07:05:00;;;;;;;3.35;1.20;;;;;;;-146.27;79.64;81809.72;5051309;28;20104;-68
2023/09/13 07:07:25;;;;;;;5.70;1.23;;;;;;;-146.27;79.91;81739.41;5049168;28;20056;-68
2023/09/13 07:09:51;;;;;;;6.75;1.10;;;;;;;-146.27;79.51;81737.41;5051261;28;20040;-68
2023/09/13 07:12:16;;;;;;;3.22;0.85;;;;;;;-146.27;79.69;81701.25;5050415;28;20506;-68
2023/09/13 07:14:42;;;;;;;1.40;0.70;;;;;;;-146.27;78.82;81675.16;5051270;28;20174;-68
2023/09/13 07:17:07;;;;;;;5.20;1.20;;;;;;;-146.27;78.41;81693.22;5043527;28;20075;-68
2023/09/13 07:19:32;;;;;;;5.45;1.30;;;;;;;-146.27;79.12;81659.06;5031372;28;20500;-68
2023/09/13 07:21:58;;;;;;;5.43;0.90;;;;;;;-146.27;78.72;81665.09;5031247;28;20100;-68
2023/09/13 07:24:23;;;;;;;5.70;1.08;;;;;;;-146.27;77.81;81659.06;5049963;28;20044;-68
2023/09/13 07:26:49;;;;;;;4.07;1.10;;;;;;;-146.27;77.66;81616.91;5039091;28;20028;-68
2023/09/13 07:29:14;;;;;;;2.25;0.90;;;;;;;-146.27;79.00;81661.09;5031250;28;20029;-68
2023/09/13 07:31:39;;;;;;;5.55;0.98;;;;;;;-146.27;78.68;81628.94;5036914;28;20108;-68
2023/09/13 07:34:05;;;;;;;2.90;0.93;;;;;;;-146.27;77.29;81608.88;5050390;28;20043;-68
2023/09/13 07:36:30;;;;;;;3.20;0.90;;;;;;;-146.27;77.27;81624.94;5048117;28;20036;-68
2023/09/13 07:38:56;;;;;;;1.77;0.80;;;;;;;-146.27;77.04;81576.72;5050578;28;20103;-68
2023/09/13 07:41:21;;;;;;;7.22;0.90;;;;;;;-146.27;76.52;81586.78;5049865;28;20570;-68
2023/09/13 07:43:47;;;;;;;6.13;0.93;;;;;;;-146.27;75.76;81504.44;5046197;28;20025;-68
2023/09/13 07:46:12;;;;;;;3.00;1.25;;;;;;;-146.27;75.55;81462.25;5042513;28;20025;-68
2023/09/13 07:48:38;;;;;;;2.42;1.13;;;;;;;-146.27;74.22;81377.91;5042339;28;20111;-68
2023/09/13 07:51:04;;;;;;;1.40;1.00;;;;;;;-146.27;75.43;81488.38;5039069;28;20029;-68
2023/09/13 07:53:30;;;;;;;1.48;0.70;;;;;;;-146.27;74.16;81478.31;5035775;28;20029;-69
2023/09/13 07:55:59;;;;;;;1.60;0.52;;;;;;;-146.27;73.74;81434.13;5044722;28;20377;-70
2023/09/13 07:58:24;;;;;;;2.97;0.70;;;;;;;-146.27;74.65;81319.66;5040727;28;20392;-69
2023/09/13 08:00:50;;;;;;;0.93;0.40;;;;;;;-146.27;75.70;81389.94;5040526;28;20018;-69
2023/09/13 08:03:15;;;;;;;2.67;0.80;;;;;;;-146.27;74.80;81295.56;5049699;28;20028;-68
2023/09/13 08:05:45;;;;;;;2.60;0.70;;;;;;;-146.27;75.10;81271.47;5036832;28;20621;-68
2023/09/13 08:08:14;;;;;;;3.78;1.00;;;;;;;-146.27;75.21;81215.22;5049753;28;20037;-69
2023/09/13 08:10:40;;;;;;;2.60;0.70;;;;;;;-146.27;73.75;81189.13;5049379;28;20613;-69
2023/09/13 08:13:06;;;;;;;0.68;0.55;;;;;;;-146.27;73.61;81263.44;5043019;28;20508;-69
2023/09/13 08:15:32;;;;;;;1.73;0.60;;;;;;;-146.27;72.37;81205.19;5029942;28;20056;-68
2023/09/13 08:17:57;;;;;;;2.65;0.70;;;;;;;-146.27;72.10;81227.28;5030234;28;20033;-69
2023/09/13 08:20:23;;;;;;;2.78;0.88;;;;;;;-146.27;72.93;81189.13;5037751;28;20017;-68
2023/09/13 08:22:48;;;;;;;0.90;0.60;;;;;;;-146.27;73.78;81177.06;5045123;28;20057;-69
2023/09/13 08:25:13;;;;;;;2.45;0.50;;;;;;;-146.27;72.38;81150.97;5030520;28;20147;-67
2023/09/13 08:27:39;;;;;;;3.83;0.70;;;;;;;-146.27;72.09;81110.81;5033240;28;20043;-66
2023/09/13 08:30:05;;;;;;;2.28;0.70;;;;;;;-146.27;72.35;81130.88;5047473;28;20029;-66
2023/09/13 08:32:30;;;;;;;1.55;1.08;;;;;;;-146.27;72.61;81126.88;5048052;28;20028;-67
2023/09/13 08:34:55;;;;;;;1.95;0.70;;;;;;;-146.27;71.50;81134.91;5047089;28;20060;-67
2023/09/13 08:37:21;;;;;;;1.40;0.82;;;;;;;-146.27;71.17;81094.75;5048998;28;20052;-66
2023/09/13 08:39:46;;;;;;;2.67;1.02;;;;;;;-146.27;70.25;81036.50;5048352;28;20107;-67
2023/09/13 08:42:13;;;;;;;2.45;0.90;;;;;;;-146.27;70.37;81054.56;5046578;28;20039;-67
2023/09/13 08:44:40;;;;;;;1.85;1.00;;;;;;;-146.27;70.87;81032.50;5046911;28;20017;-65
2023/09/13 08:47:08;;;;;;;1.90;0.90;;;;;;;-146.27;71.11;81078.69;5048922;28;20044;-67
2023/09/13 08:49:35;;;;;;;1.88;1.00;;;;;;;-146.27;70.63;80956.19;5048070;28;20110;-66
2023/09/13 08:52:02;;;;;;;2.80;0.90;;;;;;;-146.27;69.88;80982.28;5043772;28;20048;-67
2023/09/13 08:54:28;;;;;;;1.85;0.80;;;;;;;-146.27;70.08;80978.28;5049365;28;20118;-67
2023/09/13 08:56:56;;;;;;;5.25;1.25;;;;;;;-146.27;70.98;80962.22;5049287;28;20400;-67
2023/09/13 08:59:22;;;;;;;3.17;1.05;;;;;;;-146.27;70.05;80984.28;5049227;28;20102;-67
2023/09/13 09:01:49;;;;;;;3.35;1.13;;;;;;;-146.27;70.43;80950.16;5038637;28;20104;-67
2023/09/13 09:04:16;;;;;;;2.40;1.10;;;;;;;-146.27;69.13;80930.06;5029364;28;20057;-66
2023/09/13 09:06:42;;;;;;;3.50;1.00;;;;;;;-146.27;68.51;80926.06;5038234;28;20666;-68
2023/09/13 09:09:08;;;;;;;7.43;1.17;;;;;;;-146.27;68.29;80869.84;5045328;28;20115;-67
2023/09/13 09:11:36;;;;;;;3.70;1.30;;;;;;;-146.27;70.16;80789.50;5052666;28;20116;-67
2023/09/13 09:14:03;;;;;;;3.58;0.90;;;;;;;-146.27;67.35;80823.66;5052757;28;20031;-65
2023/09/13 09:16:31;;;;;;;2.40;1.02;;;;;;;-146.27;69.62;80837.72;5050337;28;20086;-68
2023/09/13 09:18:59;;;;;;;4.97;1.23;;;;;;;-146.27;67.83;80765.41;5067539;28;20028;-67
2023/09/13 09:21:25;;;;;;;2.58;0.80;;;;;;;-146.27;66.23;80757.38;5053294;28;20021;-68
2023/09/13 09:23:52;;;;;;;8.45;1.35;;;;;;;-146.27;66.83;80825.66;5058518;28;20442;-66
2023/09/13 09:26:17;;;;;;;5.68;1.10;;;;;;;-146.27;66.92;80729.28;5056625;28;20452;-68
2023/09/13 09:28:43;;;;;;;2.20;1.17;;;;;;;-146.27;65.79;80753.38;5053367;28;20060;-66
2023/09/13 09:31:10;;;;;;;2.45;1.10;;;;;;;-146.27;66.38;80685.09;5047722;28;20421;-66
2023/09/13 09:33:38;;;;;;;2.63;1.00;;;;;;;-146.27;64.90;80711.19;5059017;28;20084;-66
2023/09/13 09:36:04;;;;;;;1.60;0.80;;;;;;;-146.27;65.67;80787.50;5052323;28;20017;-68
2023/09/13 09:38:30;;;;;;;1.25;0.75;;;;;;;-146.27;67.39;80659.00;5060688;28;20040;-68
2023/09/13 09:41:03;;;;;;;2.47;0.70;;;;;;;-146.27;64.62;80602.78;5059287;28;20022;-68
2023/09/13 09:43:31;;;;;;;2.58;0.65;;;;;;;-146.27;66.06;80624.88;5060883;28;20040;-69
2023/09/13 09:45:57;;;;;;;2.17;0.73;;;;;;;-146.27;65.58;80622.84;5051934;28;20024;-68
2023/09/13 09:48:22;;;;;;;0.65;0.47;;;;;;;-146.27;64.98;80608.78;5045968;28;20039;-68
2023/09/13 09:50:51;;;;;;;0.65;0.60;;;;;;;-146.27;64.01;80568.63;5050707;28;20374;-69
2023/09/13 09:53:17;;;;;;;1.90;0.70;;;;;;;-146.27;64.40;80490.34;5052484;28;20032;-68
2023/09/13 09:55:44;;;;;;;1.17;0.73;;;;;;;-146.27;62.84;80404.00;5051880;28;20477;-68
2023/09/13 09:58:10;;;;;;;1.63;0.60;;;;;;;-146.27;61.96;80325.69;5050759;28;20032;-68
2023/09/13 10:00:50;;;;;;;3.25;0.60;;;;;;;-146.27;64.61;80448.16;5038817;28;20029;-68
2023/09/13 10:03:19;;;;;;;2.17;0.60;;;;;;;-146.27;62.91;80385.94;5032299;28;20033;-68
2023/09/13 10:06:06;;;;;;;1.52;0.47;;;;;;;-146.27;60.00;80323.69;5032370;28;20025;-68
2023/09/13 10:08:37;;;;;;;0.80;0.50;;;;;;;-146.27;60.11;80331.72;5036744;28;20029;-68
2023/09/13 10:11:02;;;;;;;0.50;0.40;;;;;;;-146.27;60.76;80311.63;5053365;28;20033;-68
2023/09/13 10:13:30;;;;;;;1.38;0.60;;;;;;;-146.27;62.24;80307.63;5052238;28;20484;-68
2023/09/13 10:15:57;;;;;;;2.40;0.93;;;;;;;-146.27;61.02;80420.06;5046249;28;20151;-68
2023/09/13 10:18:25;;;;;;;3.17;0.65;;;;;;;-146.27;62.98;80444.16;5036217;28;20061;-68
2023/09/13 10:20:52;;;;;;;2.53;0.55;;;;;;;-146.27;62.05;80514.44;5040630;28;20039;-68
2023/09/13 10:23:19;;;;;;;3.28;0.75;;;;;;;-146.27;63.89;80510.41;5043647;28;20037;-68
2023/09/13 10:25:46;;;;;;;1.38;0.60;;;;;;;-146.27;61.56;80468.25;5032507;28;20106;-68
2023/09/13 10:28:14;;;;;;;2.35;0.80;;;;;;;-146.27;63.74;80500.38;5043801;28;20028;-71
2023/09/13 10:30:41;;;;;;;2.33;0.50;;;;;;;-146.27;61.71;80512.41;5050426;28;20392;-68
2023/09/13 10:33:12;;;;;;;1.10;0.50;;;;;;;-146.27;64.29;80608.78;5049656;28;20017;-69
2023/09/13 10:35:41;;;;;;;2.60;0.80;;;;;;;-146.27;64.92;80620.84;5046261;28;20033;-67
2023/09/13 10:38:26;;;;;;;2.63;0.80;;;;;;;-146.27;67.69;80729.28;5039166;28;20453;-68
2023/09/13 10:40:59;;;;;;;8.98;0.82;;;;;;;-146.27;68.34;80733.28;5050240;28;20029;-68
2023/09/13 10:43:28;;;;;;;4.13;0.85;;;;;;;-146.27;68.24;80797.53;5049775;28;20033;-68
2023/09/13 10:45:54;;;;;;;3.67;0.93;;;;;;;-146.27;69.36;80771.44;5039537;28;20029;-69
2023/09/13 10:48:21;;;;;;;5.25;1.70;;;;;;;-146.27;68.26;80833.69;5043558;28;20024;-69
2023/09/13 10:50:49;;;;;;;5.30;1.00;;;;;;;-146.27;65.90;80865.81;5049665;28;20025;-68
2023/09/13 10:53:15;;;;;;;4.35;1.23;;;;;;;-146.27;64.98;80982.28;5052587;28;20025;-68
2023/09/13 10:55:41;;;;;;;3.50;1.20;;;;;;;-146.27;63.69;81026.47;5057148;28;20044;-66
2023/09/13 10:58:09;;;;;;;4.68;1.10;;;;;;;-146.27;64.99;81032.50;5048454;28;20127;-67
2023/09/13 11:00:36;;;;;;;7.68;1.00;;;;;;;-146.27;65.69;81066.63;5052818;28;20013;-69
2023/09/13 11:03:04;;;;;;;8.18;1.85;;;;;;;-146.27;64.13;81054.56;5042724;28;20508;-69
2023/09/13 11:05:32;;;;;;;3.13;1.27;;;;;;;-146.27;64.39;81048.56;5043043;28;20108;-68
2023/09/13 11:07:57;;;;;;;4.78;1.23;;;;;;;-146.27;64.55;80994.34;5044747;28;20033;-69